createdAt,value
2023-07-03T00:01:21.138Z,70.10
2023-07-03T00:03:09.333Z,70.37
2023-07-03T00:04:12.722Z,70.25
2023-07-03T00:05:59.071Z,70.21
2023-07-03T00:07:02.406Z,70.26
2023-07-03T00:08:48.213Z,70.58
2023-07-03T00:09:51.321Z,70.38
2023-07-03T00:11:36.366Z,70.17
2023-07-03T00:12:39.398Z,70.03
2023-07-03T00:14:24.576Z,70.20
2023-07-03T00:15:27.972Z,70.26
2023-07-03T00:17:13.987Z,70.21
2023-07-03T00:18:17.392Z,70.32
2023-07-03T00:20:02.483Z,70.06
2023-07-03T00:21:05.833Z,70.15
2023-07-03T00:22:51.154Z,70.16
2023-07-03T00:23:54.475Z,70.44
2023-07-03T00:25:39.372Z,70.35
2023-07-03T00:26:43.132Z,70.24
2023-07-03T00:28:28.340Z,70.26
2023-07-03T00:29:31.903Z,70.36
2023-07-03T00:31:17.056Z,70.39
2023-07-03T00:32:20.501Z,70.44
2023-07-03T00:34:06.052Z,69.98
2023-07-03T00:35:09.090Z,70.11
2023-07-03T00:36:54.413Z,70.01
2023-07-03T00:37:57.608Z,70.22
2023-07-03T00:39:42.920Z,70.09
2023-07-03T00:40:46.302Z,69.98
2023-07-03T00:42:31.563Z,69.82
2023-07-03T00:43:34.953Z,69.90
2023-07-03T00:45:20.299Z,70.10
2023-07-03T00:46:23.575Z,70.29
2023-07-03T00:48:09.230Z,70.41
2023-07-03T00:49:12.605Z,70.37
2023-07-03T00:50:57.955Z,70.17
2023-07-03T00:52:00.994Z,69.96
2023-07-03T00:53:46.285Z,70.12
2023-07-03T00:54:49.511Z,70.01
2023-07-03T00:56:34.975Z,70.04
2023-07-03T00:57:38.324Z,70.04
2023-07-03T00:59:23.751Z,69.78
2023-07-03T01:01:21.211Z,69.83
2023-07-03T01:03:07.069Z,69.17
2023-07-03T01:04:10.198Z,69.32
2023-07-03T01:05:57.371Z,69.41
2023-07-03T01:07:00.834Z,69.46
2023-07-03T01:08:46.142Z,69.30
2023-07-03T01:09:49.289Z,69.06
2023-07-03T01:11:34.801Z,69.40
2023-07-03T01:12:37.880Z,68.99
2023-07-03T01:14:23.247Z,69.05
2023-07-03T01:15:26.730Z,69.11
2023-07-03T01:17:12.796Z,68.91
2023-07-03T01:18:16.326Z,69.00
2023-07-03T01:20:01.662Z,68.57
2023-07-03T01:21:04.718Z,68.71
2023-07-03T01:22:50.069Z,69.13
2023-07-03T01:23:53.460Z,69.07
2023-07-03T01:25:39.008Z,69.04
2023-07-03T01:26:42.925Z,68.81
2023-07-03T01:28:28.447Z,69.00
2023-07-03T01:29:31.614Z,69.17
2023-07-03T01:31:16.853Z,69.11
2023-07-03T01:32:20.336Z,68.90
2023-07-03T01:34:05.982Z,68.56
2023-07-03T01:35:09.103Z,68.91
2023-07-03T01:36:54.198Z,68.73
2023-07-03T01:37:57.512Z,68.91
2023-07-03T01:39:42.589Z,69.03
2023-07-03T01:40:45.901Z,68.36
2023-07-03T01:42:31.353Z,68.40
2023-07-03T01:43:34.721Z,68.53
2023-07-03T01:45:20.209Z,68.67
2023-07-03T01:46:23.847Z,68.48
2023-07-03T01:48:09.742Z,68.49
2023-07-03T01:49:13.024Z,68.69
2023-07-03T01:50:58.407Z,68.70
2023-07-03T01:52:01.926Z,68.99
2023-07-03T01:53:47.172Z,68.68
2023-07-03T01:54:50.524Z,68.73
2023-07-03T01:56:36.369Z,68.81
2023-07-03T01:57:39.491Z,69.06
2023-07-03T01:59:25.373Z,69.08
2023-07-03T02:01:21.312Z,68.58
2023-07-03T02:03:07.465Z,68.79
2023-07-03T02:04:11.730Z,68.88
2023-07-03T02:05:57.260Z,68.83
2023-07-03T02:07:00.565Z,69.07
2023-07-03T02:08:46.022Z,68.95
2023-07-03T02:09:49.212Z,69.00
2023-07-03T02:11:34.466Z,69.08
2023-07-03T02:12:37.707Z,69.35
2023-07-03T02:14:22.960Z,69.38
2023-07-03T02:15:26.437Z,69.40
2023-07-03T02:17:12.347Z,69.48
2023-07-03T02:18:15.730Z,69.16
2023-07-03T02:20:01.197Z,69.51
2023-07-03T02:21:04.475Z,69.31
2023-07-03T02:22:49.394Z,69.23
2023-07-03T02:23:52.732Z,69.05
2023-07-03T02:25:38.097Z,68.94
2023-07-03T02:26:42.138Z,68.99
2023-07-03T02:28:27.445Z,69.06
2023-07-03T02:29:30.610Z,69.16
2023-07-03T02:31:16.239Z,69.18
2023-07-03T02:32:20.035Z,69.47
2023-07-03T02:34:05.564Z,69.55
2023-07-03T02:35:08.471Z,69.61
2023-07-03T02:36:53.746Z,69.46
2023-07-03T02:37:57.074Z,69.82
2023-07-03T02:39:42.058Z,69.77
2023-07-03T02:40:46.915Z,70.17
2023-07-03T02:42:32.334Z,70.05
2023-07-03T02:43:35.695Z,70.06
2023-07-03T02:45:20.874Z,69.98
2023-07-03T02:46:23.967Z,70.20
2023-07-03T02:48:09.930Z,70.48
2023-07-03T02:49:13.589Z,70.66
2023-07-03T02:50:59.294Z,70.60
2023-07-03T02:52:02.592Z,70.73
2023-07-03T02:53:47.666Z,71.05
2023-07-03T02:54:50.889Z,71.03
2023-07-03T02:56:36.475Z,71.14
2023-07-03T02:57:39.458Z,71.19
2023-07-03T02:59:24.372Z,71.30
2023-07-03T03:01:22.046Z,71.34
2023-07-03T03:03:07.980Z,71.78
2023-07-03T03:04:12.206Z,71.88
2023-07-03T03:05:58.135Z,72.14
2023-07-03T03:07:01.722Z,72.46
2023-07-03T03:08:47.295Z,72.52
2023-07-03T03:09:50.746Z,72.42
2023-07-03T03:11:36.170Z,72.38
2023-07-03T03:12:39.489Z,72.46
2023-07-03T03:14:25.201Z,72.48
2023-07-03T03:15:28.376Z,72.49
2023-07-03T03:17:14.349Z,72.76
2023-07-03T03:18:17.931Z,72.67
2023-07-03T03:20:05.845Z,72.75
2023-07-03T03:21:09.327Z,72.57
2023-07-03T03:22:54.778Z,72.66
2023-07-03T03:23:58.035Z,72.77
2023-07-03T03:25:43.543Z,72.80
2023-07-03T03:26:47.692Z,73.03
2023-07-03T03:28:32.832Z,72.92
2023-07-03T03:29:35.879Z,73.05
2023-07-03T03:31:21.468Z,72.89
2023-07-03T03:32:24.999Z,72.92
2023-07-03T03:34:10.560Z,72.91
2023-07-03T03:35:13.773Z,72.90
2023-07-03T03:36:59.269Z,72.88
2023-07-03T03:38:02.516Z,73.00
2023-07-03T03:39:47.731Z,72.98
2023-07-03T03:40:51.137Z,72.92
2023-07-03T03:42:36.495Z,72.97
2023-07-03T03:43:39.816Z,72.97
2023-07-03T03:45:24.836Z,72.97
2023-07-03T03:46:28.338Z,73.00
2023-07-03T03:48:14.221Z,73.11
2023-07-03T03:49:18.403Z,73.19
2023-07-03T03:51:03.475Z,73.23
2023-07-03T03:52:06.579Z,73.25
2023-07-03T03:53:51.594Z,73.46
2023-07-03T03:54:55.161Z,73.37
2023-07-03T03:56:40.422Z,73.50
2023-07-03T03:57:43.729Z,73.64
2023-07-03T03:59:29.158Z,73.60
2023-07-03T04:01:21.120Z,73.64
2023-07-03T04:03:07.119Z,73.83
2023-07-03T04:04:10.544Z,73.72
2023-07-03T04:05:46.779Z,73.75
2023-07-03T04:06:50.689Z,73.88
2023-07-03T04:08:36.488Z,74.08
2023-07-03T04:09:39.957Z,74.00
2023-07-03T04:11:25.738Z,74.19
2023-07-03T04:12:29.046Z,74.33
2023-07-03T04:14:15.127Z,74.31
2023-07-03T04:15:18.545Z,74.56
2023-07-03T04:17:04.469Z,74.56
2023-07-03T04:18:08.083Z,74.65
2023-07-03T04:19:53.586Z,74.47
2023-07-03T04:20:57.111Z,74.55
2023-07-03T04:22:45.783Z,74.51
2023-07-03T04:23:49.152Z,74.49
2023-07-03T04:25:34.602Z,74.42
2023-07-03T04:26:38.626Z,74.37
2023-07-03T04:28:24.342Z,74.87
2023-07-03T04:29:27.849Z,74.89
2023-07-03T04:31:13.372Z,74.85
2023-07-03T04:32:17.281Z,74.95
2023-07-03T04:34:05.878Z,74.79
2023-07-03T04:35:09.291Z,74.88
2023-07-03T04:36:54.883Z,74.88
2023-07-03T04:37:58.607Z,74.75
2023-07-03T04:39:44.226Z,74.74
2023-07-03T04:40:47.756Z,75.00
2023-07-03T04:42:33.423Z,75.15
2023-07-03T04:43:37.492Z,75.11
2023-07-03T04:45:23.226Z,75.31
2023-07-03T04:46:27.080Z,75.36
2023-07-03T04:48:13.003Z,75.49
2023-07-03T04:49:16.552Z,75.47
2023-07-03T04:51:02.157Z,75.61
2023-07-03T04:52:05.489Z,75.79
2023-07-03T04:53:51.183Z,75.92
2023-07-03T04:54:54.770Z,75.90
2023-07-03T04:56:41.379Z,75.79
2023-07-03T04:57:44.738Z,75.90
2023-07-03T04:59:30.323Z,75.94
2023-07-03T05:01:21.786Z,76.03
2023-07-03T05:03:07.943Z,76.07
2023-07-03T05:04:12.225Z,75.98
2023-07-03T05:05:58.943Z,76.31
2023-07-03T05:07:02.554Z,76.37
2023-07-03T05:08:48.594Z,76.65
2023-07-03T05:09:52.367Z,76.50
2023-07-03T05:11:37.938Z,76.51
2023-07-03T05:12:41.518Z,76.49
2023-07-03T05:14:27.496Z,76.43
2023-07-03T05:15:30.923Z,76.71
2023-07-03T05:17:17.503Z,76.88
2023-07-03T05:18:21.019Z,76.82
2023-07-03T05:20:06.331Z,76.73
2023-07-03T05:21:09.394Z,76.53
2023-07-03T05:22:54.674Z,76.24
2023-07-03T05:23:57.531Z,76.00
2023-07-03T05:25:42.859Z,76.05
2023-07-03T05:26:46.472Z,76.02
2023-07-03T05:28:31.763Z,75.41
2023-07-03T05:29:35.090Z,75.73
2023-07-03T05:31:20.567Z,75.46
2023-07-03T05:32:24.720Z,75.43
2023-07-03T05:34:10.391Z,75.03
2023-07-03T05:35:13.530Z,74.95
2023-07-03T05:37:12.790Z,74.41
2023-07-03T05:38:17.452Z,74.39
2023-07-03T05:40:02.827Z,74.74
2023-07-03T05:41:06.254Z,74.33
2023-07-03T05:42:51.393Z,74.47
2023-07-03T05:43:54.835Z,74.48
2023-07-03T05:45:39.927Z,74.31
2023-07-03T05:46:44.039Z,74.27
2023-07-03T05:48:30.853Z,74.52
2023-07-03T05:49:34.205Z,74.41
2023-07-03T05:51:19.781Z,74.06
2023-07-03T05:52:23.140Z,74.09
2023-07-03T05:54:11.357Z,74.09
2023-07-03T05:55:14.662Z,73.85
2023-07-03T05:56:59.920Z,74.16
2023-07-03T05:58:03.327Z,73.74
2023-07-03T05:59:48.633Z,72.40
2023-07-03T06:00:18.160Z,72.40
2023-07-03T06:01:21.624Z,72.59
2023-07-03T06:03:07.462Z,72.89
2023-07-03T06:04:13.534Z,73.00
2023-07-03T06:06:00.236Z,72.69
2023-07-03T06:07:03.605Z,72.65
2023-07-03T06:08:48.964Z,73.14
2023-07-03T06:09:52.236Z,73.42
2023-07-03T06:11:37.945Z,72.51
2023-07-03T06:12:41.285Z,71.85
2023-07-03T06:14:26.662Z,70.05
2023-07-03T06:15:29.816Z,70.11
2023-07-03T06:17:16.125Z,69.72
2023-07-03T06:18:19.733Z,70.07
2023-07-03T06:20:04.933Z,69.68
2023-07-03T06:21:08.255Z,69.69
2023-07-03T06:22:53.607Z,68.69
2023-07-03T06:23:57.075Z,67.91
2023-07-03T06:25:43.734Z,68.23
2023-07-03T06:26:47.789Z,68.19
2023-07-03T06:28:32.924Z,68.71
2023-07-03T06:29:36.356Z,68.88
2023-07-03T06:31:22.118Z,68.69
2023-07-03T06:32:25.691Z,68.36
2023-07-03T06:34:11.183Z,68.85
2023-07-03T06:35:14.526Z,66.11
2023-07-03T06:37:00.153Z,66.96
2023-07-03T06:38:03.278Z,67.77
2023-07-03T06:39:48.735Z,66.30
2023-07-03T06:40:51.820Z,66.43
2023-07-03T06:42:37.003Z,65.30
2023-07-03T06:43:40.488Z,65.01
2023-07-03T06:45:26.047Z,65.34
2023-07-03T06:46:29.966Z,65.19
2023-07-03T06:48:15.994Z,64.19
2023-07-03T06:49:19.203Z,64.60
2023-07-03T06:51:04.531Z,63.96
2023-07-03T06:52:07.721Z,62.57
2023-07-03T06:53:52.959Z,61.91
2023-07-03T06:54:56.167Z,62.43
2023-07-03T06:56:44.326Z,62.93
2023-07-03T06:57:47.411Z,62.16
2023-07-03T06:59:32.785Z,62.53
2023-07-03T07:01:21.035Z,61.46
2023-07-03T07:03:07.570Z,61.72
2023-07-03T07:04:12.311Z,61.61
2023-07-03T07:06:03.170Z,61.72
2023-07-03T07:07:06.751Z,61.69
2023-07-03T07:08:52.174Z,61.74
2023-07-03T07:09:55.412Z,60.96
2023-07-03T07:11:41.094Z,60.36
2023-07-03T07:12:44.407Z,60.81
2023-07-03T07:14:33.495Z,61.47
2023-07-03T07:15:36.852Z,61.25
2023-07-03T07:17:26.029Z,60.91
2023-07-03T07:18:50.086Z,60.53
2023-07-03T07:20:39.551Z,60.47
2023-07-03T07:21:42.980Z,59.48
2023-07-03T07:23:28.352Z,59.48
2023-07-03T07:24:31.660Z,59.68
2023-07-03T07:26:17.181Z,60.42
2023-07-03T07:27:20.403Z,60.93
2023-07-03T07:29:05.813Z,61.20
2023-07-03T07:30:09.425Z,61.28
2023-07-03T07:31:55.226Z,60.38
2023-07-03T07:32:58.811Z,60.86
2023-07-03T07:34:44.342Z,60.84
2023-07-03T07:35:48.062Z,60.56
2023-07-03T07:37:33.813Z,59.49
2023-07-03T07:38:37.308Z,59.37
2023-07-03T07:40:25.553Z,60.11
2023-07-03T07:41:28.871Z,60.27
2023-07-03T07:43:14.298Z,59.92
2023-07-03T07:44:17.587Z,59.53
2023-07-03T07:46:03.104Z,59.31
2023-07-03T07:47:06.756Z,59.03
2023-07-03T07:48:52.315Z,59.59
2023-07-03T07:49:55.516Z,58.41
2023-07-03T07:51:40.858Z,58.76
2023-07-03T07:52:44.500Z,59.00
2023-07-03T07:54:29.965Z,58.78
2023-07-03T07:55:33.561Z,58.02
2023-07-03T07:57:20.992Z,57.56
2023-07-03T07:58:24.616Z,58.32
2023-07-03T08:00:18.370Z,57.80
2023-07-03T08:01:22.243Z,58.32
2023-07-03T08:03:11.740Z,58.72
2023-07-03T08:04:16.039Z,56.98
2023-07-03T08:06:02.683Z,58.83
2023-07-03T08:07:05.972Z,59.36
2023-07-03T08:08:51.535Z,61.26
2023-07-03T08:09:54.735Z,58.75
2023-07-03T08:11:40.066Z,56.32
2023-07-03T08:12:43.541Z,55.87
2023-07-03T08:14:29.230Z,57.87
2023-07-03T08:15:32.767Z,58.75
2023-07-03T08:17:19.183Z,58.85
2023-07-03T08:18:22.781Z,57.79
2023-07-03T08:20:12.449Z,56.00
2023-07-03T08:21:15.861Z,56.08
2023-07-03T08:23:01.193Z,55.18
2023-07-03T08:24:05.191Z,55.91
2023-07-03T08:25:52.405Z,55.45
2023-07-03T08:26:56.043Z,55.96
2023-07-03T08:28:41.479Z,57.08
2023-07-03T08:29:44.962Z,57.02
2023-07-03T08:31:32.283Z,57.73
2023-07-03T08:32:36.515Z,57.65
2023-07-03T08:34:23.310Z,58.64
2023-07-03T08:37:42.808Z,59.15
2023-07-03T08:38:45.906Z,59.49
2023-07-03T08:40:31.590Z,59.59
2023-07-03T08:41:35.172Z,59.50
2023-07-03T08:43:20.495Z,59.07
2023-07-03T08:44:24.170Z,59.45
2023-07-03T08:46:11.027Z,59.26
2023-07-03T08:47:18.287Z,59.26
2023-07-03T08:49:05.458Z,58.55
2023-07-03T08:50:10.850Z,59.27
2023-07-03T08:52:10.536Z,59.18
2023-07-03T08:53:13.595Z,59.28
2023-07-03T08:54:58.996Z,59.67
2023-07-03T08:56:02.556Z,58.29
2023-07-03T08:57:48.370Z,58.76
2023-07-03T08:58:51.704Z,58.25
2023-07-03T09:00:18.038Z,56.17
2023-07-03T09:01:21.313Z,57.31
2023-07-03T09:03:10.098Z,55.29
2023-07-03T09:04:14.127Z,56.46
2023-07-03T09:05:59.930Z,54.33
2023-07-03T09:07:03.325Z,54.06
2023-07-03T09:08:48.985Z,55.28
2023-07-03T09:09:52.461Z,55.62
2023-07-03T09:11:38.752Z,55.26
2023-07-03T09:12:43.849Z,53.73
2023-07-03T09:14:29.197Z,54.04
2023-07-03T09:15:32.751Z,53.99
2023-07-03T09:17:19.255Z,55.38
2023-07-03T09:18:22.945Z,55.41
2023-07-03T09:20:10.678Z,56.33
2023-07-03T09:21:14.146Z,56.74
2023-07-03T09:22:59.229Z,57.57
2023-07-03T09:24:03.032Z,57.80
2023-07-03T09:25:49.936Z,56.63
2023-07-03T09:27:01.015Z,57.41
2023-07-03T09:28:46.741Z,57.43
2023-07-03T09:29:50.001Z,57.81
2023-07-03T09:31:40.922Z,58.28
2023-07-03T09:32:45.981Z,59.07
2023-07-03T09:34:31.459Z,61.54
2023-07-03T09:35:35.793Z,61.85
2023-07-03T09:37:23.464Z,63.11
2023-07-03T09:38:29.253Z,65.89
2023-07-03T09:40:15.193Z,65.65
2023-07-03T09:41:19.671Z,66.84
2023-07-03T09:43:05.522Z,66.69
2023-07-03T09:44:10.215Z,67.72
2023-07-03T09:45:59.960Z,67.12
2023-07-03T09:47:03.231Z,67.63
2023-07-03T09:48:52.495Z,63.84
2023-07-03T09:49:58.845Z,64.16
2023-07-03T09:52:01.193Z,64.66
2023-07-03T09:53:17.489Z,64.66
2023-07-03T09:55:03.207Z,64.48
2023-07-03T09:56:07.652Z,64.90
2023-07-03T09:57:52.960Z,65.22
2023-07-03T09:58:56.389Z,65.71
2023-07-03T10:00:17.924Z,66.04
2023-07-03T10:03:31.981Z,64.30
2023-07-03T10:06:49.461Z,63.89
2023-07-03T10:08:38.917Z,62.90
2023-07-03T10:11:59.297Z,60.84
2023-07-03T10:13:47.354Z,61.95
2023-07-03T10:14:50.432Z,61.59
2023-07-03T10:16:36.524Z,61.13
2023-07-03T10:17:40.241Z,61.35
2023-07-03T10:19:25.640Z,61.78
2023-07-03T10:20:34.035Z,61.46
2023-07-03T10:22:19.520Z,62.32
2023-07-03T10:23:23.150Z,62.43
2023-07-03T10:25:08.531Z,62.77
2023-07-03T10:26:11.725Z,63.70
2023-07-03T10:27:59.955Z,65.34
2023-07-03T10:29:03.473Z,65.87
2023-07-03T10:30:49.282Z,67.67
2023-07-03T10:31:52.738Z,68.37
2023-07-03T10:33:38.527Z,68.61
2023-07-03T10:34:42.030Z,69.56
2023-07-03T10:36:27.657Z,70.14
2023-07-03T10:37:30.981Z,70.84
2023-07-03T10:39:16.581Z,69.22
2023-07-03T10:40:20.302Z,68.55
2023-07-03T10:42:05.840Z,68.38
2023-07-03T10:43:09.372Z,68.36
2023-07-03T10:44:54.747Z,67.93
2023-07-03T10:45:58.655Z,67.92
2023-07-03T10:47:47.617Z,67.39
2023-07-03T10:48:51.247Z,67.05
2023-07-03T10:50:36.882Z,67.49
2023-07-03T10:51:42.110Z,67.44
2023-07-03T10:53:27.535Z,67.41
2023-07-03T10:54:31.014Z,67.50
2023-07-03T10:56:16.886Z,67.07
2023-07-03T10:57:20.072Z,67.48
2023-07-03T10:59:09.280Z,67.20
2023-07-03T11:00:18.476Z,67.31
2023-07-03T11:01:21.834Z,67.25
2023-07-03T11:03:08.222Z,67.67
2023-07-03T11:04:30.828Z,66.43
2023-07-03T11:06:16.685Z,66.46
2023-07-03T11:07:19.942Z,66.39
2023-07-03T11:09:05.474Z,66.61
2023-07-03T11:10:08.713Z,66.52
2023-07-03T11:11:54.066Z,65.44
2023-07-03T11:12:57.125Z,65.03
2023-07-03T11:14:43.014Z,65.61
2023-07-03T11:15:46.900Z,65.25
2023-07-03T11:17:33.937Z,65.08
2023-07-03T11:22:56.459Z,66.76
2023-07-03T11:24:04.729Z,67.01
2023-07-03T11:27:54.419Z,64.81
2023-07-03T11:28:58.139Z,63.79
2023-07-03T11:30:43.332Z,62.45
2023-07-03T11:31:47.424Z,63.35
2023-07-03T11:35:53.300Z,62.26
2023-07-03T11:37:09.812Z,62.20
2023-07-03T11:41:06.542Z,62.39
2023-07-03T11:44:27.994Z,63.94
2023-07-03T11:45:31.594Z,63.44
2023-07-03T11:47:17.886Z,63.15
2023-07-03T11:48:21.621Z,63.13
2023-07-03T11:50:06.904Z,63.37
2023-07-03T11:51:11.460Z,63.15
2023-07-03T11:52:57.162Z,63.49
2023-07-03T11:54:00.671Z,63.84
2023-07-03T11:55:46.240Z,64.78
2023-07-03T11:56:49.952Z,65.15
2023-07-03T11:58:56.888Z,64.83
2023-07-03T12:00:17.985Z,65.31
2023-07-03T12:01:21.685Z,65.44
2023-07-03T12:03:08.026Z,65.57
2023-07-03T12:04:11.748Z,65.58
2023-07-03T12:05:57.719Z,65.94
2023-07-03T12:07:01.094Z,64.47
2023-07-03T12:08:46.611Z,62.93
2023-07-03T12:09:49.993Z,62.91
2023-07-03T12:11:37.633Z,63.38
2023-07-03T12:12:41.123Z,63.31
2023-07-03T12:14:26.990Z,63.81
2023-07-03T12:15:30.398Z,64.73
2023-07-03T12:17:16.562Z,65.11
2023-07-03T12:18:20.425Z,64.86
2023-07-03T12:20:05.972Z,65.60
2023-07-03T12:21:09.529Z,65.21
2023-07-03T12:22:54.840Z,65.74
2023-07-03T12:23:57.948Z,65.67
2023-07-03T12:25:43.225Z,65.88
2023-07-03T12:26:46.980Z,65.72
2023-07-03T12:28:32.568Z,65.93
2023-07-03T12:29:35.869Z,65.58
2023-07-03T12:31:21.628Z,66.41
2023-07-03T12:32:25.723Z,65.58
2023-07-03T12:34:11.782Z,66.36
2023-07-03T12:35:15.156Z,66.51
2023-07-03T12:37:08.526Z,66.22
2023-07-03T12:38:12.100Z,65.46
2023-07-03T12:39:57.592Z,65.11
2023-07-03T12:41:00.928Z,64.28
2023-07-03T12:42:46.305Z,63.80
2023-07-03T12:44:03.509Z,63.16
2023-07-03T12:45:53.164Z,62.75
2023-07-03T12:46:56.795Z,62.82
2023-07-03T12:48:42.394Z,61.65
2023-07-03T12:49:45.652Z,60.31
2023-07-03T12:51:35.506Z,60.16
2023-07-03T12:52:41.723Z,59.13
2023-07-03T12:54:27.410Z,59.15
2023-07-03T12:55:34.348Z,58.96
2023-07-03T12:57:20.280Z,58.47
2023-07-03T12:58:23.975Z,59.39
2023-07-03T13:00:18.053Z,60.62
2023-07-03T13:01:22.030Z,61.20
2023-07-03T13:03:07.759Z,58.29
2023-07-03T13:04:10.792Z,58.15
2023-07-03T13:06:00.377Z,56.30
2023-07-03T13:07:04.401Z,55.95
2023-07-03T13:08:49.739Z,56.46
2023-07-03T13:09:53.194Z,57.11
2023-07-03T13:11:39.652Z,56.94
2023-07-03T13:12:42.916Z,56.00
2023-07-03T13:14:28.597Z,56.16
2023-07-03T13:15:32.387Z,56.97
2023-07-03T13:17:18.462Z,57.93
2023-07-03T13:18:22.238Z,56.80
2023-07-03T13:20:07.589Z,57.17
2023-07-03T13:21:10.858Z,57.22
2023-07-03T13:22:56.084Z,56.91
2023-07-03T13:23:59.233Z,57.91
2023-07-03T13:25:44.818Z,56.69
2023-07-03T13:26:48.815Z,56.32
2023-07-03T13:28:35.228Z,56.12
2023-07-03T13:29:39.212Z,55.79
2023-07-03T13:31:27.880Z,57.11
2023-07-03T13:32:50.421Z,56.23
2023-07-03T13:34:36.496Z,56.92
2023-07-03T13:35:39.723Z,57.02
2023-07-03T13:37:25.373Z,57.37
2023-07-03T13:38:28.848Z,58.24
2023-07-03T13:40:14.732Z,56.86
2023-07-03T13:41:18.157Z,57.21
2023-07-03T13:43:03.473Z,55.84
2023-07-03T13:44:06.659Z,56.35
2023-07-03T13:45:52.676Z,55.43
2023-07-03T13:46:56.742Z,56.15
2023-07-03T13:48:42.530Z,56.56
2023-07-03T13:49:45.869Z,55.03
2023-07-03T13:51:31.548Z,53.18
2023-07-03T13:52:35.064Z,53.60
2023-07-03T13:54:21.241Z,53.70
2023-07-03T13:55:24.798Z,54.42
2023-07-03T13:57:12.181Z,53.77
2023-07-03T13:58:15.559Z,54.30
2023-07-03T14:00:00.720Z,54.69
2023-07-03T14:00:18.465Z,52.88
2023-07-03T14:01:32.263Z,52.38
2023-07-03T14:03:36.375Z,50.74
2023-07-03T14:04:44.130Z,51.58
2023-07-03T14:06:30.512Z,50.18
2023-07-03T14:07:33.932Z,50.68
2023-07-03T14:09:19.837Z,51.09
2023-07-03T14:10:23.380Z,52.08
2023-07-03T14:12:08.687Z,49.99
2023-07-03T14:13:12.071Z,51.02
2023-07-03T14:14:59.501Z,51.31
2023-07-03T14:16:02.951Z,51.54
2023-07-03T14:17:48.811Z,51.58
2023-07-03T14:18:52.784Z,52.11
2023-07-03T14:20:41.732Z,50.01
2023-07-03T14:21:45.233Z,50.51
2023-07-03T14:23:30.944Z,50.36
2023-07-03T14:24:34.441Z,51.75
2023-07-03T14:26:20.012Z,52.03
2023-07-03T14:27:23.399Z,52.78
2023-07-03T14:29:09.119Z,52.44
2023-07-03T14:30:12.606Z,53.23
2023-07-03T14:31:58.485Z,52.37
2023-07-03T14:33:08.040Z,51.60
2023-07-03T14:34:53.755Z,52.58
2023-07-03T14:35:57.914Z,53.35
2023-07-03T14:37:43.480Z,53.03
2023-07-03T14:38:47.044Z,52.41
2023-07-03T14:40:32.597Z,51.72
2023-07-03T14:41:36.158Z,51.45
2023-07-03T14:43:21.582Z,50.87
2023-07-03T14:44:24.899Z,51.02
2023-07-03T14:46:10.537Z,49.58
2023-07-03T14:47:14.201Z,49.62
2023-07-03T14:49:00.994Z,49.75
2023-07-03T14:50:04.416Z,49.87
2023-07-03T14:51:49.619Z,50.10
2023-07-03T14:52:52.863Z,50.82
2023-07-03T14:54:38.797Z,51.96
2023-07-03T14:55:42.272Z,51.27
2023-07-03T14:57:31.753Z,52.58
2023-07-03T14:58:35.058Z,52.59
2023-07-03T15:00:17.878Z,51.13
2023-07-03T15:01:22.958Z,51.08
2023-07-03T15:03:13.526Z,51.55
2023-07-03T15:04:18.811Z,51.49
2023-07-03T15:06:05.188Z,51.34
2023-07-03T15:07:08.323Z,50.63
2023-07-03T15:08:53.457Z,49.42
2023-07-03T15:09:56.902Z,50.77
2023-07-03T15:11:42.746Z,50.38
2023-07-03T15:12:46.021Z,51.08
2023-07-03T15:14:33.953Z,51.01
2023-07-03T15:15:37.322Z,51.43
2023-07-03T15:17:24.467Z,51.65
2023-07-03T15:18:28.226Z,50.18
2023-07-03T15:20:13.737Z,50.11
2023-07-03T15:21:20.324Z,49.80
2023-07-03T15:23:05.922Z,49.44
2023-07-03T15:24:09.431Z,49.77
2023-07-03T15:25:55.503Z,49.35
2023-07-03T15:26:59.202Z,48.34
2023-07-03T15:28:45.484Z,49.58
2023-07-03T15:29:49.380Z,49.29
2023-07-03T15:31:35.045Z,50.38
2023-07-03T15:32:40.912Z,49.32
2023-07-03T15:34:26.979Z,49.83
2023-07-03T15:35:30.482Z,50.16
2023-07-03T15:37:16.105Z,50.75
2023-07-03T15:38:19.397Z,50.67
2023-07-03T15:40:05.293Z,51.59
2023-07-03T15:41:08.717Z,51.71
2023-07-03T15:42:53.925Z,50.41
2023-07-03T15:43:57.000Z,50.54
2023-07-03T15:45:42.392Z,50.82
2023-07-03T15:46:45.890Z,51.50
2023-07-03T15:48:31.855Z,51.21
2023-07-03T15:49:38.766Z,51.79
2023-07-03T15:51:25.449Z,51.11
2023-07-03T15:52:28.915Z,50.71
2023-07-03T15:54:14.728Z,50.21
2023-07-03T15:55:20.491Z,50.92
2023-07-03T15:57:07.110Z,50.67
2023-07-03T15:58:10.546Z,50.37
2023-07-03T15:59:56.129Z,51.07
2023-07-03T16:00:17.739Z,51.45
2023-07-03T16:01:21.035Z,51.22
2023-07-03T16:03:07.001Z,52.35
2023-07-03T16:04:10.504Z,52.02
2023-07-03T16:05:47.438Z,52.71
2023-07-03T16:06:50.869Z,52.84
2023-07-03T16:08:37.636Z,51.34
2023-07-03T16:09:41.240Z,51.41
2023-07-03T16:11:27.284Z,51.34
2023-07-03T16:12:30.791Z,52.21
2023-07-03T16:14:16.879Z,50.63
2023-07-03T16:15:20.284Z,50.71
2023-07-03T16:17:07.511Z,51.80
2023-07-03T16:18:11.620Z,51.52
2023-07-03T16:19:57.332Z,51.17
2023-07-03T16:21:07.513Z,51.17
2023-07-03T16:22:53.291Z,51.15
2023-07-03T16:23:56.927Z,51.40
2023-07-03T16:25:42.656Z,51.87
2023-07-03T16:26:47.742Z,53.00
2023-07-03T16:28:33.416Z,52.80
2023-07-03T16:29:37.000Z,53.76
2023-07-03T16:31:23.336Z,51.51
2023-07-03T16:32:28.930Z,51.58
2023-07-03T16:34:14.859Z,50.86
2023-07-03T16:35:18.396Z,50.84
2023-07-03T16:37:04.027Z,51.23
2023-07-03T16:38:07.623Z,50.95
2023-07-03T16:39:53.165Z,50.63
2023-07-03T16:40:56.734Z,50.55
2023-07-03T16:42:42.659Z,50.70
2023-07-03T16:43:46.398Z,51.00
2023-07-03T16:45:32.349Z,50.92
2023-07-03T16:46:39.775Z,51.71
2023-07-03T16:48:26.737Z,50.91
2023-07-03T16:49:30.528Z,51.78
2023-07-03T16:51:16.269Z,51.11
2023-07-03T16:52:20.108Z,50.49
2023-07-03T16:54:06.170Z,51.88
2023-07-03T16:55:09.881Z,51.38
2023-07-03T16:56:55.643Z,52.03
2023-07-03T16:57:59.294Z,51.82
2023-07-03T16:59:45.303Z,52.22
2023-07-03T17:00:18.110Z,52.16
2023-07-03T17:01:21.780Z,52.85
2023-07-03T17:03:08.495Z,52.89
2023-07-03T17:04:13.188Z,53.14
2023-07-03T17:05:58.983Z,53.45
2023-07-03T17:07:02.598Z,53.68
2023-07-03T17:08:48.184Z,53.99
2023-07-03T17:09:51.649Z,53.68
2023-07-03T17:11:37.578Z,53.91
2023-07-03T17:12:40.940Z,53.61
2023-07-03T17:14:26.740Z,53.36
2023-07-03T17:15:30.035Z,53.44
2023-07-03T17:17:17.688Z,53.68
2023-07-03T17:18:21.542Z,54.31
2023-07-03T17:20:07.477Z,53.46
2023-07-03T17:21:11.058Z,53.33
2023-07-03T17:22:57.046Z,53.95
2023-07-03T17:24:00.809Z,54.06
2023-07-03T17:25:46.554Z,53.74
2023-07-03T17:26:50.589Z,53.46
2023-07-03T17:28:36.787Z,53.36
2023-07-03T17:29:40.443Z,53.60
2023-07-03T17:31:26.219Z,52.74
2023-07-03T17:32:30.517Z,53.55
2023-07-03T17:34:16.581Z,53.72
2023-07-03T17:35:20.306Z,54.20
2023-07-03T17:37:06.071Z,52.72
2023-07-03T17:38:09.537Z,53.01
2023-07-03T17:39:55.325Z,52.65
2023-07-03T17:40:58.917Z,52.54
2023-07-03T17:42:48.319Z,52.73
2023-07-03T17:43:51.977Z,53.07
2023-07-03T17:45:37.748Z,51.64
2023-07-03T17:46:42.186Z,51.86
2023-07-03T17:48:28.521Z,52.07
2023-07-03T17:49:32.392Z,51.76
2023-07-03T17:51:18.068Z,51.47
2023-07-03T17:52:21.922Z,51.60
2023-07-03T17:54:07.506Z,52.10
2023-07-03T17:55:11.155Z,52.55
2023-07-03T17:56:59.969Z,52.45
2023-07-03T17:58:03.516Z,52.79
2023-07-03T17:59:49.025Z,52.54
2023-07-03T18:00:17.660Z,52.54
2023-07-03T18:01:21.310Z,52.36
2023-07-03T18:03:07.440Z,52.28
2023-07-03T18:04:11.820Z,52.32
2023-07-03T18:05:58.049Z,52.70
2023-07-03T18:07:02.125Z,52.98
2023-07-03T18:08:47.957Z,52.80
2023-07-03T18:09:51.778Z,52.93
2023-07-03T18:11:38.905Z,52.48
2023-07-03T18:12:42.603Z,52.82
2023-07-03T18:14:28.464Z,53.60
2023-07-03T18:15:53.541Z,53.57
2023-07-03T18:17:40.277Z,53.74
2023-07-03T18:18:43.926Z,53.49
2023-07-03T18:20:29.843Z,53.76
2023-07-03T18:21:33.533Z,54.70
2023-07-03T18:23:19.184Z,54.58
2023-07-03T18:24:22.487Z,54.46
2023-07-03T18:26:08.053Z,54.75
2023-07-03T18:27:11.834Z,54.67
2023-07-03T18:28:57.477Z,54.38
2023-07-03T18:30:01.097Z,53.85
2023-07-03T18:31:47.203Z,54.75
2023-07-03T18:32:51.301Z,54.79
2023-07-03T18:34:37.395Z,54.85
2023-07-03T18:35:41.100Z,55.15
2023-07-03T18:37:27.065Z,55.00